Time;durP1;ratioP1;P1;durP2;ratioP2;P2;SDS_P1;SDS_P2;PMS_P1;PMS_P2;Temp;Humidity;BMP_temperature;BMP_pressure;BME280_temperature;BME280_humidity;BME280_pressure;Samples;Min_cycle;Max_cycle;Signal;HPM_P1;HPM_P2
2023/04/22 00:00:46;;;;;;;28.20;25.00;;;;;;;5.04;100.00;100701.94;5114138;28;20020;-55
2023/04/22 00:03:13;;;;;;;27.35;23.65;;;;;;;4.94;100.00;100709.16;5113117;28;20036;-55
2023/04/22 00:05:38;;;;;;;25.65;21.98;;;;;;;4.82;100.00;100708.53;5113764;28;20102;-55
2023/04/22 00:08:04;;;;;;;33.20;27.20;;;;;;;5.02;100.00;100706.09;5113159;28;20106;-56
2023/04/22 00:10:29;;;;;;;26.85;23.88;;;;;;;4.89;100.00;100702.94;5113357;28;20042;-56
2023/04/22 00:12:54;;;;;;;28.42;25.20;;;;;;;4.96;100.00;100699.00;5113706;28;20028;-55
2023/04/22 00:15:20;;;;;;;29.02;25.17;;;;;;;4.89;100.00;100695.28;5112783;28;20023;-56
2023/04/22 00:17:49;;;;;;;33.72;24.70;;;;;;;4.84;100.00;100694.16;5113611;28;20390;-55
2023/04/22 00:20:15;;;;;;;25.75;22.88;;;;;;;4.74;100.00;100694.50;5113569;28;20433;-56
2023/04/22 00:22:40;;;;;;;24.35;21.27;;;;;;;4.57;100.00;100689.41;5112753;28;20098;-55
2023/04/22 00:25:06;;;;;;;26.90;24.05;;;;;;;4.64;100.00;100694.84;5113603;28;20081;-54
2023/04/22 00:27:32;;;;;;;27.92;23.98;;;;;;;4.64;100.00;100697.38;5113023;28;20466;-56
2023/04/22 00:29:57;;;;;;;26.02;22.45;;;;;;;4.50;100.00;100697.53;5112981;28;20098;-55
2023/04/22 00:32:22;;;;;;;29.83;25.92;;;;;;;4.68;100.00;100696.72;5113350;28;20019;-55
2023/04/22 00:34:48;;;;;;;26.58;23.67;;;;;;;4.50;100.00;100694.97;5113635;28;20037;-56
2023/04/22 00:37:14;;;;;;;29.50;24.85;;;;;;;4.60;100.00;100698.91;5112698;28;20074;-55
2023/04/22 00:39:39;;;;;;;33.30;28.55;;;;;;;4.70;100.00;100706.22;5113341;28;20112;-56
2023/04/22 00:42:06;;;;;;;35.53;29.88;;;;;;;4.72;100.00;100706.28;5113247;28;20023;-56
2023/04/22 00:44:31;;;;;;;30.33;26.87;;;;;;;4.60;100.00;100697.22;5112235;28;20447;-56
2023/04/22 00:46:58;;;;;;;25.90;23.10;;;;;;;4.58;100.00;100696.28;5113346;28;20445;-56
2023/04/22 00:49:27;;;;;;;24.65;21.42;;;;;;;4.50;100.00;100700.09;5113078;28;20135;-55
2023/04/22 00:51:53;;;;;;;23.85;21.27;;;;;;;4.42;100.00;100698.81;5112550;28;20034;-55
2023/04/22 00:54:19;;;;;;;27.70;22.90;;;;;;;4.44;100.00;100702.31;5112970;28;20024;-56
2023/04/22 00:56:45;;;;;;;29.55;25.25;;;;;;;4.57;100.00;100697.06;5113160;28;20383;-56
2023/04/22 00:59:10;;;;;;;31.83;27.08;;;;;;;4.56;100.00;100697.84;5112675;28;20024;-55
2023/04/22 01:01:36;;;;;;;33.33;27.02;;;;;;;4.60;100.00;100699.75;5113035;28;20043;-55
2023/04/22 01:04:03;;;;;;;31.63;26.65;;;;;;;4.57;100.00;100699.63;5113157;28;20043;-56
2023/04/22 01:06:31;;;;;;;37.30;29.67;;;;;;;4.68;100.00;100699.28;5112031;28;20051;-56
2023/04/22 01:08:56;;;;;;;;;;;;;;;4.73;100.00;100695.28;5113490;28;20028;-56
2023/04/22 01:11:22;;;;;;;36.83;29.60;;;;;;;4.86;100.00;100694.22;5111914;28;19957;-56
2023/04/22 01:13:47;;;;;;;37.00;30.90;;;;;;;5.01;100.00;100683.88;5113262;28;20506;-56
2023/04/22 01:16:12;;;;;;;40.08;30.52;;;;;;;5.00;100.00;100695.78;5113089;28;20096;-55
2023/04/22 01:18:38;;;;;;;37.92;30.42;;;;;;;5.04;100.00;100687.47;5111953;28;20024;-55
2023/04/22 01:21:04;;;;;;;38.00;31.15;;;;;;;5.11;100.00;100681.88;5113036;28;20520;-55
2023/04/22 01:23:30;;;;;;;36.40;29.92;;;;;;;5.13;100.00;100676.84;5115292;28;20020;-56
2023/04/22 01:25:56;;;;;;;32.33;26.25;;;;;;;5.10;100.00;100681.81;5115985;28;20455;-56
2023/04/22 01:28:22;;;;;;;32.47;25.65;;;;;;;5.09;100.00;100680.91;5116839;28;20055;-56
2023/04/22 01:30:48;;;;;;;30.17;24.80;;;;;;;5.14;100.00;100678.59;5117017;28;20038;-56
2023/04/22 01:33:14;;;;;;;26.90;23.50;;;;;;;5.11;100.00;100675.88;5116173;28;20106;-55
2023/04/22 01:35:40;;;;;;;26.33;22.67;;;;;;;5.11;100.00;100683.53;5116707;28;20106;-56
2023/04/22 01:38:07;;;;;;;25.98;22.42;;;;;;;5.07;100.00;100679.09;5116677;28;20119;-56
2023/04/22 01:40:33;;;;;;;29.15;24.42;;;;;;;5.16;100.00;100679.53;5115603;28;20393;-56
2023/04/22 01:42:59;;;;;;;28.88;24.35;;;;;;;5.20;100.00;100684.00;5116770;28;20031;-54
2023/04/22 01:45:26;;;;;;;30.52;24.17;;;;;;;5.20;100.00;100678.00;5116422;28;20031;-56
2023/04/22 01:47:51;;;;;;;28.70;24.35;;;;;;;5.22;100.00;100672.16;5115745;28;20131;-55
2023/04/22 01:50:16;;;;;;;29.45;23.58;;;;;;;5.22;100.00;100673.88;5116220;28;20534;-56
2023/04/22 01:52:42;;;;;;;26.25;22.05;;;;;;;5.21;100.00;100675.53;5116456;28;20085;-56
2023/04/22 01:55:08;;;;;;;25.13;22.17;;;;;;;5.19;100.00;100677.16;5115645;28;20356;-55
2023/04/22 01:57:33;;;;;;;25.90;22.52;;;;;;;5.19;100.00;100669.47;5116715;28;20024;-56
2023/04/22 01:59:59;;;;;;;26.52;21.35;;;;;;;5.08;100.00;100670.63;5116509;28;20383;-55
2023/04/22 02:02:24;;;;;;;24.50;21.45;;;;;;;5.08;100.00;100674.06;5115308;28;20015;-56
2023/04/22 02:04:49;;;;;;;27.17;23.13;;;;;;;5.11;100.00;100674.22;5116573;28;20383;-55
2023/04/22 02:07:15;;;;;;;28.75;23.95;;;;;;;5.13;100.00;100666.63;5116180;28;20031;-55
2023/04/22 02:09:40;;;;;;;31.70;25.95;;;;;;;5.18;100.00;100666.84;5115354;28;20136;-56
2023/04/22 02:12:05;;;;;;;27.92;23.85;;;;;;;5.16;100.00;100671.00;5116312;28;20024;-56
2023/04/22 02:14:31;;;;;;;30.58;25.23;;;;;;;5.19;100.00;100671.13;5115721;28;20081;-55
2023/04/22 02:16:56;;;;;;;32.00;26.80;;;;;;;5.23;100.00;100678.19;5115485;28;20030;-55
2023/04/22 02:19:22;;;;;;;32.10;26.85;;;;;;;5.28;100.00;100669.91;5115829;28;20072;-55
2023/04/22 02:21:47;;;;;;;39.30;29.85;;;;;;;5.29;100.00;100668.22;5115262;28;20019;-56
2023/04/22 02:24:12;;;;;;;38.47;30.95;;;;;;;5.36;100.00;100671.94;5115898;28;20028;-55
2023/04/22 02:26:38;;;;;;;38.60;30.50;;;;;;;5.35;100.00;100658.31;5115619;28;20118;-56
2023/04/22 02:29:03;;;;;;;35.15;29.52;;;;;;;5.36;100.00;100657.50;5115059;28;20027;-56
2023/04/22 02:31:28;;;;;;;33.35;27.60;;;;;;;5.36;100.00;100659.16;5115482;28;20435;-55
2023/04/22 02:33:53;;;;;;;35.38;28.83;;;;;;;5.35;100.00;100658.31;5115768;28;20391;-56
2023/04/22 02:36:19;;;;;;;37.22;30.88;;;;;;;5.38;100.00;100655.88;5114581;28;20027;-55
2023/04/22 02:38:44;;;;;;;30.73;26.63;;;;;;;5.39;100.00;100649.09;5115738;28;20020;-56
2023/04/22 02:41:10;;;;;;;29.00;25.08;;;;;;;5.34;100.00;100640.34;5115732;28;20035;-55
2023/04/22 02:43:35;;;;;;;28.02;24.35;;;;;;;5.25;100.00;100646.78;5114519;28;20035;-56
2023/04/22 02:46:00;;;;;;;29.83;25.15;;;;;;;5.21;100.00;100649.97;5115356;28;20059;-56
2023/04/22 02:48:26;;;;;;;29.73;24.38;;;;;;;5.15;100.00;100643.69;5115187;28;20032;-55
2023/04/22 02:50:51;;;;;;;27.83;24.60;;;;;;;5.17;100.00;100653.19;5114678;28;20015;-54
2023/04/22 02:53:16;;;;;;;27.67;23.98;;;;;;;5.18;100.00;100649.84;5114941;28;20036;-57
2023/04/22 02:55:41;;;;;;;29.35;25.05;;;;;;;5.18;100.00;100643.88;5115460;28;20024;-55
2023/04/22 02:58:07;;;;;;;30.30;25.92;;;;;;;5.17;100.00;100642.97;5114599;28;20069;-55
2023/04/22 03:00:33;;;;;;;29.48;26.15;;;;;;;5.21;100.00;100644.00;5115012;28;20099;-55
2023/04/22 03:02:58;;;;;;;35.72;28.85;;;;;;;5.33;100.00;100633.47;5115283;28;20043;-56
2023/04/22 03:05:23;;;;;;;33.42;27.65;;;;;;;5.26;100.00;100633.19;5114031;28;20024;-55
2023/04/22 03:07:49;;;;;;;32.58;26.77;;;;;;;5.28;100.00;100631.59;5115119;28;20027;-55
2023/04/22 03:10:14;;;;;;;32.40;26.92;;;;;;;5.27;100.00;100628.97;5115238;28;20100;-55
2023/04/22 03:12:40;;;;;;;30.58;25.40;;;;;;;5.28;100.00;100628.16;5113956;28;20019;-55
2023/04/22 03:15:06;;;;;;;33.33;27.13;;;;;;;5.32;100.00;100635.16;5115014;28;20032;-55
2023/04/22 03:17:31;;;;;;;36.17;29.98;;;;;;;5.38;100.00;100626.91;5114472;28;20106;-56
2023/04/22 03:19:57;;;;;;;35.83;30.33;;;;;;;5.41;100.00;100632.16;5113975;28;20051;-56
2023/04/22 03:22:22;;;;;;;33.00;27.73;;;;;;;5.39;100.00;100629.53;5114390;28;20368;-55
2023/04/22 03:24:47;;;;;;;32.35;27.70;;;;;;;5.33;100.00;100623.25;5114907;28;20019;-56
2023/04/22 03:27:12;;;;;;;31.65;25.77;;;;;;;5.27;100.00;100623.84;5113868;28;20039;-56
2023/04/22 03:29:38;;;;;;;27.20;23.88;;;;;;;5.24;100.00;100623.69;5114244;28;20572;-56
2023/04/22 03:32:03;;;;;;;27.67;23.98;;;;;;;5.18;100.00;100626.84;5113903;28;20069;-56
2023/04/22 03:34:28;;;;;;;28.23;24.48;;;;;;;5.14;100.00;100617.28;5114246;28;20110;-56
2023/04/22 03:36:54;;;;;;;27.52;24.08;;;;;;;5.09;100.00;100613.63;5114394;28;20062;-55
2023/04/22 03:39:19;;;;;;;24.80;22.10;;;;;;;5.08;100.00;100619.53;5113552;28;20455;-56
2023/04/22 03:41:44;;;;;;;27.83;24.23;;;;;;;5.04;100.00;100608.28;5114333;28;20039;-56
2023/04/22 03:44:10;;;;;;;31.35;25.23;;;;;;;5.05;100.00;100606.63;5114386;28;20073;-56
2023/04/22 03:46:35;;;;;;;27.13;24.15;;;;;;;4.99;100.00;100603.78;5112712;28;20118;-56
2023/04/22 03:49:00;;;;;;;29.33;24.67;;;;;;;4.98;100.00;100602.88;5114369;28;20028;-56
2023/04/22 03:51:25;;;;;;;29.77;25.60;;;;;;;5.05;100.00;100607.50;5113880;28;20442;-54
2023/04/22 03:53:51;;;;;;;30.45;25.48;;;;;;;5.02;100.00;100606.47;5113317;28;20032;-55
2023/04/22 03:56:16;;;;;;;27.77;23.85;;;;;;;4.94;100.00;100599.34;5114018;28;20019;-56
2023/04/22 03:58:41;;;;;;;28.95;24.90;;;;;;;4.94;100.00;100598.44;5114226;28;20039;-56
2023/04/22 04:01:07;;;;;;;29.15;25.25;;;;;;;4.92;100.00;100598.38;5113290;28;20427;-56
2023/04/22 04:03:32;;;;;;;29.50;24.67;;;;;;;4.94;100.00;100594.22;5113373;28;20051;-56
2023/04/22 04:05:57;;;;;;;31.50;27.17;;;;;;;4.94;100.00;100596.78;5113834;28;20046;-55
2023/04/22 04:08:22;;;;;;;31.58;26.85;;;;;;;4.97;100.00;100597.72;5112728;28;20024;-55
2023/04/22 04:10:48;;;;;;;32.63;27.58;;;;;;;5.02;100.00;100586.94;5114010;28;20481;-55
2023/04/22 04:13:13;;;;;;;33.47;29.42;;;;;;;4.97;100.00;100584.94;5114022;28;20016;-56
2023/04/22 04:15:38;;;;;;;37.45;31.10;;;;;;;5.08;100.00;100578.66;5112829;28;20028;-55
2023/04/22 04:18:04;;;;;;;39.90;33.13;;;;;;;5.13;100.00;100584.88;5113810;28;20027;-55
2023/04/22 04:20:29;;;;;;;39.33;32.33;;;;;;;5.07;100.00;100584.56;5113358;28;20027;-56
2023/04/22 04:22:55;;;;;;;40.60;34.42;;;;;;;5.19;100.00;100581.72;5112773;28;20027;-55
2023/04/22 04:25:21;;;;;;;41.08;34.85;;;;;;;5.20;100.00;100586.03;5113335;28;20015;-56
2023/04/22 04:27:46;;;;;;;39.33;33.50;;;;;;;5.11;100.00;100587.34;5113665;28;20027;-55
2023/04/22 04:30:13;;;;;;;37.72;31.73;;;;;;;5.19;100.00;100584.28;5112665;28;20383;-54
2023/04/22 04:32:39;;;;;;;39.15;32.35;;;;;;;5.18;100.00;100580.00;5113341;28;20030;-56
2023/04/22 04:35:05;;;;;;;32.40;28.42;;;;;;;5.09;100.00;100567.66;5113414;28;20098;-55
2023/04/22 04:37:30;;;;;;;35.25;29.52;;;;;;;5.17;100.00;100576.53;5112175;28;20023;-55
2023/04/22 04:39:58;;;;;;;36.42;30.25;;;;;;;5.14;100.00;100583.19;5113341;28;20100;-56
2023/04/22 04:42:23;;;;;;;40.95;33.22;;;;;;;5.21;100.00;100588.66;5112227;28;20355;-56
2023/04/22 04:44:49;;;;;;;43.85;34.78;;;;;;;5.20;100.00;100584.38;5113470;28;20489;-56
2023/04/22 04:47:15;;;;;;;45.75;36.28;;;;;;;5.26;100.00;100581.22;5113243;28;20563;-55
2023/04/22 04:49:40;;;;;;;45.40;37.25;;;;;;;5.36;100.00;100577.38;5112330;28;20063;-55
2023/04/22 04:52:08;;;;;;;45.70;36.67;;;;;;;5.30;100.00;100582.25;5113240;28;20030;-56
2023/04/22 04:54:34;;;;;;;43.70;34.95;;;;;;;5.33;100.00;100580.69;5113035;28;20066;-55
2023/04/22 04:57:00;;;;;;;44.00;35.95;;;;;;;5.32;100.00;100578.94;5112456;28;20491;-55
2023/04/22 04:59:26;;;;;;;47.40;37.85;;;;;;;5.38;100.00;100580.91;5117271;28;20106;-55
2023/04/22 05:01:51;;;;;;;45.88;37.05;;;;;;;5.43;100.00;100580.31;5117477;28;20102;-56
2023/04/22 05:04:16;;;;;;;47.78;38.35;;;;;;;5.54;100.00;100577.34;5116195;28;20055;-56
2023/04/22 05:06:42;;;;;;;47.10;38.67;;;;;;;5.54;100.00;100572.25;5117304;28;20391;-56
2023/04/22 05:09:07;;;;;;;47.15;38.63;;;;;;;5.58;100.00;100574.16;5117455;28;20012;-56
2023/04/22 05:11:32;;;;;;;48.00;39.38;;;;;;;5.58;100.00;100577.59;5116295;28;20433;-56
2023/04/22 05:13:58;;;;;;;47.85;38.97;;;;;;;5.64;100.00;100588.88;5117281;28;20471;-56
2023/04/22 05:16:24;;;;;;;48.30;38.05;;;;;;;5.66;100.00;100589.84;5117004;28;20106;-56
2023/04/22 05:18:49;;;;;;;41.92;35.05;;;;;;;5.69;100.00;100582.31;5116402;28;20038;-55
2023/04/22 05:21:15;;;;;;;44.63;33.38;;;;;;;5.69;100.00;100567.81;5116973;28;20047;-55
2023/04/22 05:23:40;;;;;;;39.95;32.80;;;;;;;5.69;100.00;100567.81;5117217;28;20027;-55
2023/04/22 05:26:06;;;;;;;38.85;32.55;;;;;;;5.73;100.00;100573.97;5115982;28;20027;-56
2023/04/22 05:28:31;;;;;;;41.05;34.35;;;;;;;5.77;100.00;100570.72;5116688;28;20084;-56
2023/04/22 05:30:56;;;;;;;39.20;34.53;;;;;;;5.83;100.00;100573.56;5116907;28;20024;-55
2023/04/22 05:33:22;;;;;;;43.78;37.38;;;;;;;5.93;100.00;100580.84;5115742;28;20020;-56
2023/04/22 05:35:47;;;;;;;49.65;40.58;;;;;;;6.04;100.00;100585.56;5116790;28;20379;-56
2023/04/22 05:38:12;;;;;;;50.10;39.38;;;;;;;6.14;100.00;100574.94;5117009;28;20023;-55
2023/04/22 05:40:39;;;;;;;49.58;39.58;;;;;;;6.17;100.00;100572.53;5115737;28;20441;-56
2023/04/22 05:43:05;;;;;;;47.33;38.42;;;;;;;6.19;100.00;100570.03;5116817;28;20023;-55
2023/04/22 05:45:30;;;;;;;49.78;39.38;;;;;;;6.24;100.00;100569.41;5116378;28;20015;-56
2023/04/22 05:47:55;;;;;;;54.85;39.78;;;;;;;6.30;100.00;100567.91;5115740;28;20087;-55
2023/04/22 05:50:21;;;;;;;52.88;40.45;;;;;;;6.32;100.00;100567.16;5116156;28;20498;-56
2023/04/22 05:52:46;;;;;;;49.20;40.05;;;;;;;6.40;100.00;100570.06;5115605;28;20056;-56
2023/04/22 05:55:12;;;;;;;48.50;40.40;;;;;;;6.46;100.00;100565.19;5116621;28;20027;-56
2023/04/22 05:57:37;;;;;;;46.72;40.83;;;;;;;6.51;100.00;100573.06;5116173;28;20031;-56
2023/04/22 06:00:04;;;;;;;46.25;40.35;;;;;;;6.56;100.00;100575.00;5115635;28;20031;-56
2023/04/22 06:02:29;;;;;;;45.50;39.45;;;;;;;6.62;100.00;100565.81;5116036;28;20034;-56
2023/04/22 06:04:54;;;;;;;52.40;44.65;;;;;;;6.74;100.00;100568.91;5116124;28;20127;-55
2023/04/22 06:07:20;;;;;;;61.15;47.97;;;;;;;6.85;100.00;100559.94;5115314;28;20051;-56
2023/04/22 06:09:45;;;;;;;60.35;48.00;;;;;;;6.89;100.00;100560.94;5115883;28;20429;-55
2023/04/22 06:12:10;;;;;;;60.72;48.88;;;;;;;7.03;100.00;100558.94;5116179;28;20110;-55
2023/04/22 06:14:36;;;;;;;68.75;57.78;;;;;;;7.03;100.00;100564.91;5115031;28;20023;-56
2023/04/22 06:17:01;;;;;;;70.97;60.95;;;;;;;7.20;100.00;100555.31;5116077;28;20027;-55
2023/04/22 06:19:26;;;;;;;74.22;63.95;;;;;;;7.28;100.00;100559.88;5115653;28;20429;-54
2023/04/22 06:21:52;;;;;;;69.80;58.42;;;;;;;7.39;100.00;100562.03;5115381;28;20023;-55
2023/04/22 06:24:17;;;;;;;68.15;59.53;;;;;;;7.49;100.00;100562.38;5115847;28;20028;-56
2023/04/22 06:26:43;;;;;;;62.97;55.55;;;;;;;7.53;100.00;100556.56;5115904;28;20027;-55
2023/04/22 06:29:08;;;;;;;61.35;54.35;;;;;;;7.60;100.00;100552.53;5115028;28;20033;-55
2023/04/22 06:31:33;;;;;;;73.25;62.22;;;;;;;7.78;100.00;100544.63;5115443;28;20520;-56
2023/04/22 06:33:59;;;;;;;66.82;58.17;;;;;;;7.82;100.00;100538.78;5115619;28;20102;-55
2023/04/22 06:36:26;;;;;;;55.17;49.25;;;;;;;7.87;100.00;100543.25;5114714;28;20042;-56
2023/04/22 06:38:51;;;;;;;54.90;47.67;;;;;;;7.94;100.00;100544.38;5115876;28;20028;-56
2023/04/22 06:41:17;;;;;;;53.33;47.25;;;;;;;8.04;100.00;100556.69;5115671;28;20391;-56
2023/04/22 06:43:42;;;;;;;55.65;48.50;;;;;;;8.19;100.00;100555.47;5114824;28;20070;-56
2023/04/22 06:46:08;;;;;;;53.70;48.13;;;;;;;8.31;100.00;100550.75;5115487;28;20059;-56
2023/04/22 06:48:33;;;;;;;54.58;48.58;;;;;;;8.51;100.00;100542.91;5115090;28;20032;-56
2023/04/22 06:51:00;;;;;;;50.90;43.75;;;;;;;8.55;100.00;100542.16;5114724;28;20106;-56
2023/04/22 06:53:25;;;;;;;57.78;51.60;;;;;;;8.80;100.00;100536.09;5115258;28;20043;-56
2023/04/22 06:55:52;;;;;;;47.03;42.00;;;;;;;8.78;100.00;100537.78;5115433;28;20023;-56
2023/04/22 06:58:17;;;;;;;42.90;37.95;;;;;;;8.92;100.00;100535.63;5114325;28;20145;-56
2023/04/22 07:00:43;;;;;;;44.75;40.03;;;;;;;9.01;100.00;100532.47;5115214;28;20057;-56
2023/04/22 07:03:08;;;;;;;40.83;36.35;;;;;;;9.09;100.00;100536.16;5114150;28;20062;-56
2023/04/22 07:05:33;;;;;;;50.08;44.63;;;;;;;9.48;100.00;100538.16;5114729;28;20052;-55
2023/04/22 07:07:58;;;;;;;55.50;48.80;;;;;;;9.68;100.00;100546.47;5115136;28;20050;-56
2023/04/22 07:10:24;;;;;;;43.95;39.45;;;;;;;9.73;100.00;100544.00;5114038;28;20031;-56
2023/04/22 07:12:49;;;;;;;37.10;32.58;;;;;;;9.87;100.00;100539.25;5115028;28;20030;-56
2023/04/22 07:15:14;;;;;;;38.20;34.13;;;;;;;10.02;100.00;100539.66;5114962;28;20028;-55
2023/04/22 07:17:40;;;;;;;34.42;30.92;;;;;;;10.09;100.00;100535.53;5113592;28;20016;-55
2023/04/22 07:20:06;;;;;;;34.10;30.63;;;;;;;10.10;100.00;100539.88;5113933;28;20024;-55
2023/04/22 07:22:31;;;;;;;33.92;30.45;;;;;;;10.07;100.00;100524.34;5114226;28;20471;-56
2023/04/22 07:24:56;;;;;;;34.67;31.08;;;;;;;10.17;100.00;100530.59;5113944;28;20032;-54
2023/04/22 07:27:22;;;;;;;36.97;30.90;;;;;;;10.18;100.00;100527.19;5114500;28;20073;-55
2023/04/22 07:29:47;;;;;;;34.72;31.05;;;;;;;10.14;100.00;100530.53;5114711;28;20435;-55
2023/04/22 07:32:12;;;;;;;32.58;28.08;;;;;;;10.21;100.00;100533.31;5113688;28;20113;-55
2023/04/22 07:34:38;;;;;;;32.67;29.40;;;;;;;10.33;100.00;100540.47;5114152;28;20020;-54
2023/04/22 07:37:03;;;;;;;34.38;30.85;;;;;;;10.41;100.00;100535.53;5114628;28;20099;-56
2023/04/22 07:39:29;;;;;;;31.83;28.45;;;;;;;10.48;100.00;100542.63;5113515;28;20370;-56
2023/04/22 07:41:56;;;;;;;31.90;28.58;;;;;;;10.61;100.00;100532.59;5114520;28;20046;-55
2023/04/22 07:44:21;;;;;;;30.83;27.60;;;;;;;10.72;100.00;100533.72;5114266;28;20028;-56
2023/04/22 07:46:49;;;;;;;29.88;26.85;;;;;;;10.87;100.00;100536.66;5113427;28;20023;-54
2023/04/22 07:49:15;;;;;;;31.40;28.10;;;;;;;11.03;100.00;100531.84;5114821;28;20031;-56
2023/04/22 07:51:40;;;;;;;30.50;26.50;;;;;;;11.18;100.00;100542.53;5114321;28;20034;-56
2023/04/22 07:54:06;;;;;;;23.33;20.50;;;;;;;11.27;100.00;100536.69;5113545;28;20020;-55
2023/04/22 07:56:32;;;;;;;23.70;21.15;;;;;;;11.31;100.00;100537.59;5113872;28;20028;-56
2023/04/22 07:58:57;;;;;;;25.25;21.05;;;;;;;11.40;100.00;100522.34;5114169;28;20019;-55
2023/04/22 08:01:23;;;;;;;24.60;21.42;;;;;;;11.51;100.00;100514.81;5112981;28;20027;-56
2023/04/22 08:03:48;;;;;;;24.40;21.83;;;;;;;11.70;100.00;100516.06;5113863;28;20421;-56
2023/04/22 08:06:13;;;;;;;21.42;19.05;;;;;;;11.79;100.00;100515.38;5114058;28;20051;-56
2023/04/22 08:08:39;;;;;;;22.90;20.48;;;;;;;11.89;100.00;100516.41;5112819;28;20046;-56
2023/04/22 08:11:05;;;;;;;23.02;20.02;;;;;;;11.96;100.00;100502.81;5113902;28;20027;-56
2023/04/22 08:13:31;;;;;;;21.83;19.63;;;;;;;12.06;100.00;100503.81;5112707;28;20062;-56
2023/04/22 08:15:56;;;;;;;22.25;19.60;;;;;;;12.19;100.00;100501.50;5113787;28;20390;-54
2023/04/22 08:18:21;;;;;;;22.30;19.90;;;;;;;12.39;100.00;100497.50;5113279;28;20038;-54
2023/04/22 08:20:47;;;;;;;21.80;17.67;;;;;;;12.62;100.00;100503.06;5113030;28;20065;-53
2023/04/22 08:23:12;;;;;;;20.92;18.23;;;;;;;12.77;100.00;100490.38;5113799;28;20477;-53
2023/04/22 08:25:37;;;;;;;19.48;17.33;;;;;;;13.12;100.00;100499.47;5113494;28;20075;-54
2023/04/22 08:28:03;;;;;;;20.10;16.65;;;;;;;13.35;100.00;100504.94;5112747;28;20077;-54
2023/04/22 08:30:28;;;;;;;18.08;15.65;;;;;;;13.53;100.00;100500.88;5113300;28;20019;-54
2023/04/22 08:32:53;;;;;;;18.23;15.00;;;;;;;13.49;100.00;100500.84;5113397;28;20079;-53
2023/04/22 08:35:19;;;;;;;18.05;15.60;;;;;;;13.54;100.00;100497.44;5112564;28;20020;-54
2023/04/22 08:37:44;;;;;;;16.85;15.07;;;;;;;13.58;100.00;100492.31;5113588;28;20029;-54
2023/04/22 08:40:10;;;;;;;15.25;13.65;;;;;;;13.73;100.00;100495.94;5113481;28;20022;-53
2023/04/22 08:42:36;;;;;;;17.58;12.82;;;;;;;14.01;100.00;100497.09;5112283;28;20114;-54
2023/04/22 08:45:03;;;;;;;16.60;13.95;;;;;;;14.20;100.00;100490.31;5113320;28;20020;-54
2023/04/22 08:47:31;;;;;;;16.25;13.48;;;;;;;14.30;100.00;100478.34;5112738;28;20034;-53
2023/04/22 08:49:57;;;;;;;15.60;12.15;;;;;;;14.23;94.41;100471.34;5112790;28;20028;-53
2023/04/22 08:52:23;;;;;;;14.38;11.75;;;;;;;14.18;95.57;100462.66;5113291;28;20024;-53
2023/04/22 08:54:48;;;;;;;16.20;12.57;;;;;;;14.29;96.75;100455.84;5113349;28;20520;-53
2023/04/22 08:57:16;;;;;;;14.63;11.90;;;;;;;14.38;95.79;100455.06;5112880;28;20020;-53
2023/04/22 08:59:41;;;;;;;14.45;12.23;;;;;;;14.52;95.17;100447.38;5113233;28;20024;-52
2023/04/22 09:02:13;;;;;;;14.40;12.75;;;;;;;14.70;94.65;100452.72;5113148;28;20081;-52
2023/04/22 09:04:39;;;;;;;13.73;11.93;;;;;;;15.03;93.02;100452.88;5112320;28;20127;-54
2023/04/22 09:07:05;;;;;;;12.88;11.25;;;;;;;15.18;90.69;100454.72;5113144;28;20046;-53
2023/04/22 09:09:31;;;;;;;14.15;11.77;;;;;;;15.43;89.38;100451.34;5113094;28;20020;-54
2023/04/22 09:11:57;;;;;;;13.13;10.40;;;;;;;15.29;85.99;100453.03;5112251;28;20036;-53
2023/04/22 09:14:23;;;;;;;14.40;10.48;;;;;;;15.28;86.59;100456.47;5112635;28;20387;-54
2023/04/22 09:16:48;;;;;;;13.13;9.27;;;;;;;15.13;83.71;100452.06;5112711;28;20115;-54
2023/04/22 09:19:14;;;;;;;12.20;8.80;;;;;;;15.34;87.15;100446.13;5113122;28;20106;-54
2023/04/22 09:21:40;;;;;;;10.50;9.35;;;;;;;15.24;83.64;100441.75;5112679;28;20020;-53
2023/04/22 09:24:08;;;;;;;12.07;9.80;;;;;;;15.51;89.01;100448.75;5112152;28;20463;-54
2023/04/22 09:26:37;;;;;;;11.73;9.85;;;;;;;15.71;85.18;100445.34;5112575;28;20028;-54
2023/04/22 09:29:08;;;;;;;11.52;9.30;;;;;;;15.88;86.97;100446.28;5112813;28;20042;-54
2023/04/22 09:31:33;;;;;;;11.02;9.25;;;;;;;15.92;83.69;100444.53;5112014;28;20036;-54
2023/04/22 09:33:59;;;;;;;11.75;9.63;;;;;;;16.02;86.37;100441.06;5113012;28;20103;-54
2023/04/22 09:36:26;;;;;;;10.63;8.30;;;;;;;16.11;80.27;100438.50;5112458;28;20513;-53
2023/04/22 09:38:58;;;;;;;13.23;8.60;;;;;;;16.23;82.50;100440.22;5112055;28;20026;-54
2023/04/22 09:41:32;;;;;;;11.75;8.70;;;;;;;16.23;80.20;100435.03;5112321;28;20023;-54
2023/04/22 09:43:59;;;;;;;11.88;9.32;;;;;;;16.24;78.59;100435.88;5114574;28;20024;-53
2023/04/22 09:46:26;;;;;;;9.07;8.15;;;;;;;16.49;78.19;100431.53;5115480;28;20409;-54
2023/04/22 09:48:54;;;;;;;12.82;8.55;;;;;;;16.83;79.15;100441.00;5116644;28;20027;-54
2023/04/22 09:51:19;;;;;;;;;;;;;;;17.00;80.76;100441.84;5116771;28;20030;-54
2023/04/22 09:53:56;;;;;;;11.40;8.90;;;;;;;17.15;76.74;100445.28;5115738;28;19908;-53
2023/04/22 09:56:23;;;;;;;10.82;9.57;;;;;;;17.32;76.25;100446.06;5116182;28;20751;-54
2023/04/22 09:58:51;;;;;;;;;;;;;;;17.59;80.70;100444.19;5117011;28;20016;-54
2023/04/22 10:01:18;;;;;;;10.93;8.30;;;;;;;17.94;74.83;100443.13;5116051;28;20014;-53
2023/04/22 10:03:43;;;;;;;10.88;8.60;;;;;;;18.57;74.25;100436.50;5116243;28;20123;-54
2023/04/22 10:06:09;;;;;;;10.30;8.55;;;;;;;19.04;68.71;100432.53;5115476;28;20119;-54
2023/04/22 10:08:35;;;;;;;11.73;8.55;;;;;;;19.65;63.32;100440.44;5115946;28;20047;-53
2023/04/22 10:11:01;;;;;;;14.40;8.25;;;;;;;19.61;64.19;100432.66;5116466;28;20106;-54
2023/04/22 10:13:26;;;;;;;11.38;7.95;;;;;;;19.26;64.14;100437.47;5115037;28;20042;-53
2023/04/22 10:15:54;;;;;;;9.68;7.13;;;;;;;19.20;64.72;100448.03;5116167;28;20020;-53
2023/04/22 10:18:25;;;;;;;9.52;6.70;;;;;;;19.08;65.07;100441.19;5115811;28;20028;-54
2023/04/22 10:20:52;;;;;;;9.10;6.70;;;;;;;19.29;62.67;100445.28;5115260;28;20023;-54
2023/04/22 10:23:20;;;;;;;9.80;6.20;;;;;;;19.93;61.36;100445.28;5115529;28;20540;-53
2023/04/22 10:25:48;;;;;;;8.75;6.53;;;;;;;19.45;60.38;100458.16;5116177;28;20118;-53
2023/04/22 10:28:15;;;;;;;;;;;;;;;19.80;62.95;100455.03;5115735;28;20046;-53
2023/04/22 10:30:40;;;;;;;8.45;6.15;;;;;;;19.41;61.59;100452.94;5115770;28;20377;-54
2023/04/22 10:33:26;;;;;;;11.23;7.22;;;;;;;19.43;63.34;100447.69;5115888;28;20044;-52
2023/04/22 10:36:13;;;;;;;9.80;7.90;;;;;;;19.10;66.60;100455.09;5114885;28;20058;-53
2023/04/22 10:38:40;;;;;;;12.85;7.72;;;;;;;18.78;63.55;100451.06;5115315;28;20562;-52
2023/04/22 10:41:06;;;;;;;9.88;6.88;;;;;;;18.81;64.54;100442.34;5114787;28;20406;-53
2023/04/22 10:43:47;;;;;;;11.85;7.90;;;;;;;19.11;62.40;100437.66;5115487;28;20102;-53
2023/04/22 10:46:35;;;;;;;8.02;6.63;;;;;;;19.16;63.62;100425.41;5115332;28;20027;-53
2023/04/22 10:49:11;;;;;;;7.68;5.78;;;;;;;19.17;63.09;100421.91;5114980;28;20030;-54
2023/04/22 10:51:39;;;;;;;8.75;5.95;;;;;;;18.82;62.58;100424.03;5115482;28;20051;-54
2023/04/22 10:54:06;;;;;;;8.65;6.05;;;;;;;18.46;61.64;100420.06;5115277;28;20027;-53
2023/04/22 10:56:31;;;;;;;9.10;5.90;;;;;;;17.97;65.10;100430.03;5113071;28;20023;-54
2023/04/22 10:58:56;;;;;;;7.78;5.75;;;;;;;17.60;66.30;100435.50;5115478;28;20016;-53
2023/04/22 11:01:22;;;;;;;10.27;6.45;;;;;;;17.31;67.02;100433.91;5115073;28;20034;-54
2023/04/22 11:03:47;;;;;;;7.72;5.65;;;;;;;17.06;68.61;100423.59;5114115;28;20051;-54
2023/04/22 11:06:18;;;;;;;7.32;5.53;;;;;;;16.83;71.23;100443.63;5114918;28;20114;-54